Time;durP1;ratioP1;P1;durP2;ratioP2;P2;SDS_P1;SDS_P2;PMS_P1;PMS_P2;Temp;Humidity;BMP_temperature;BMP_pressure;BME280_temperature;BME280_humidity;BME280_pressure;Samples;Min_cycle;Max_cycle;Signal;HPM_P1;HPM_P2
2021/06/23 00:00:38;;;;;;;18.33;5.63;;;;;;;25.61;51.19;99958.16;6338838;22;20013;-73
2021/06/23 00:03:04;;;;;;;17.45;5.30;;;;;;;25.63;51.06;99949.16;6338458;22;20007;-74
2021/06/23 00:05:30;;;;;;;16.00;4.60;;;;;;;25.63;51.23;99952.00;6338452;22;20007;-72
2021/06/23 00:07:56;;;;;;;18.17;5.47;;;;;;;25.65;51.04;99955.16;6338978;22;20010;-71
2021/06/23 00:10:22;;;;;;;15.93;4.57;;;;;;;25.70;51.04;99954.53;6338178;22;20014;-72
2021/06/23 00:12:53;;;;;;;19.85;4.45;;;;;;;25.67;51.23;99952.63;6338352;22;20010;-72
2021/06/23 00:15:19;;;;;;;16.10;5.50;;;;;;;25.63;51.61;99952.00;6338329;22;20094;-71
2021/06/23 00:17:46;;;;;;;14.85;5.10;;;;;;;25.63;51.91;99964.19;6338675;22;20415;-72
2021/06/23 00:20:13;;;;;;;11.70;4.70;;;;;;;25.61;51.77;99950.41;6312190;22;20014;-73
2021/06/23 00:22:38;;;;;;;19.42;4.93;;;;;;;25.66;51.87;99956.75;6338263;22;20007;-72
2021/06/23 00:25:04;;;;;;;15.88;4.65;;;;;;;25.54;52.15;99955.63;6338590;22;20003;-72
2021/06/23 00:27:30;;;;;;;16.95;4.78;;;;;;;25.51;52.01;99957.34;6338126;22;20117;-73
2021/06/23 00:29:56;;;;;;;17.52;5.40;;;;;;;25.59;52.32;99958.63;6337503;22;20030;-73
2021/06/23 00:32:22;;;;;;;19.30;4.70;;;;;;;25.59;52.43;99963.53;6338197;22;20454;-74
2021/06/23 00:34:48;;;;;;;16.95;5.45;;;;;;;25.63;52.48;99963.41;6337825;22;20090;-73
2021/06/23 00:37:14;;;;;;;16.75;4.93;;;;;;;25.58;52.44;99959.91;6312269;22;20042;-72
2021/06/23 00:39:40;;;;;;;17.88;4.65;;;;;;;25.50;52.61;99963.53;6338180;22;20082;-73
2021/06/23 00:42:08;;;;;;;11.45;4.47;;;;;;;25.46;52.52;99952.28;6337713;22;20387;-72
2021/06/23 00:44:34;;;;;;;12.02;5.20;;;;;;;25.41;52.68;99954.94;6312050;22;20019;-72
2021/06/23 00:47:00;;;;;;;14.80;4.75;;;;;;;25.39;52.81;99955.41;6311971;22;20152;-72
2021/06/23 00:49:31;;;;;;;16.10;5.07;;;;;;;25.20;53.13;99959.50;6311864;22;20038;-73
2021/06/23 00:51:59;;;;;;;20.15;4.55;;;;;;;25.23;54.00;99958.53;6339641;22;20373;-72
2021/06/23 00:54:24;;;;;;;24.55;6.85;;;;;;;25.17;54.43;99954.72;6311947;22;20003;-72
2021/06/23 00:56:50;;;;;;;14.93;5.03;;;;;;;25.15;54.09;99951.56;6312017;22;20068;-73
2021/06/23 00:59:17;;;;;;;12.55;5.22;;;;;;;25.13;54.12;99945.53;6311993;22;20010;-72
2021/06/23 01:01:43;;;;;;;15.30;5.25;;;;;;;25.21;53.79;99961.06;6312546;22;20003;-71
2021/06/23 01:04:09;;;;;;;11.45;4.38;;;;;;;25.20;53.89;99953.78;6311805;22;20075;-72
2021/06/23 01:06:35;;;;;;;15.00;5.35;;;;;;;25.16;53.82;99953.94;6312532;22;20006;-71
2021/06/23 01:09:03;;;;;;;12.95;4.85;;;;;;;25.21;53.35;99955.38;6311312;22;20010;-72
2021/06/23 01:11:29;;;;;;;14.15;4.40;;;;;;;25.16;53.49;99956.00;6312199;22;20295;-72
2021/06/23 01:14:06;;;;;;;20.15;4.90;;;;;;;25.19;53.08;99958.66;6311821;22;20427;-72
2021/06/23 01:16:38;;;;;;;13.95;4.32;;;;;;;25.20;53.32;99959.50;6311849;22;20006;-72
2021/06/23 01:19:08;;;;;;;14.18;5.18;;;;;;;25.16;53.58;99958.84;6339844;22;20418;-72
2021/06/23 01:21:33;;;;;;;16.23;5.22;;;;;;;25.23;53.16;99958.53;6311795;22;20048;-73
2021/06/23 01:23:59;;;;;;;16.20;5.65;;;;;;;25.19;53.51;99957.88;6311649;22;20013;-72
2021/06/23 01:26:25;;;;;;;15.38;5.00;;;;;;;25.15;53.71;99954.41;6311755;22;20060;-73
2021/06/23 01:28:51;;;;;;;18.40;5.88;;;;;;;25.11;54.05;99953.75;6311766;22;20014;-72
2021/06/23 01:31:19;;;;;;;13.05;4.28;;;;;;;25.10;54.24;99950.13;6311631;22;20077;-72
2021/06/23 01:33:45;;;;;;;17.10;5.63;;;;;;;25.03;54.27;99939.75;6311929;22;20430;-72
2021/06/23 01:36:11;;;;;;;19.15;5.32;;;;;;;25.08;53.92;99935.53;6312027;22;20089;-73
2021/06/23 01:38:37;;;;;;;10.98;4.65;;;;;;;25.11;54.06;99933.81;6311964;22;20429;-72
2021/06/23 01:41:03;;;;;;;15.52;4.78;;;;;;;25.02;54.07;99938.19;6311979;22;20011;-73
2021/06/23 01:43:29;;;;;;;15.02;5.30;;;;;;;24.89;54.60;99934.66;6327799;22;20011;-74
2021/06/23 01:45:55;;;;;;;13.07;4.43;;;;;;;24.81;54.86;99936.19;6337353;22;20010;-73
2021/06/23 01:48:23;;;;;;;17.15;6.05;;;;;;;24.85;54.56;99939.69;6338073;22;20423;-72
2021/06/23 01:50:56;;;;;;;15.00;5.85;;;;;;;24.82;55.06;99930.06;6311716;22;20026;-73
2021/06/23 02:01:30;;;;;;;19.75;5.32;;;;;;;24.76;55.85;99923.38;5153666;22;20190;-77
2021/06/23 02:03:55;;;;;;;18.55;6.93;;;;;;;24.65;56.12;99925.06;5040848;28;1521769;-77
2021/06/23 02:06:27;;;;;;;13.50;5.55;;;;;;;24.73;55.65;99926.38;5091770;28;20028;-77
2021/06/23 02:09:20;;;;;;;19.80;6.30;;;;;;;24.64;55.99;99929.16;5089593;28;20024;-77
2021/06/23 02:11:48;;;;;;;15.93;5.13;;;;;;;24.61;55.66;99919.53;5089657;28;20491;-77
2021/06/23 02:14:35;;;;;;;17.02;5.82;;;;;;;24.58;55.60;99914.75;5089794;28;20020;-77
2021/06/23 02:17:06;;;;;;;21.60;7.63;;;;;;;24.59;54.97;99924.06;5091262;28;20040;-77
2021/06/23 02:19:37;;;;;;;19.50;7.55;;;;;;;24.48;54.91;99913.09;5089266;28;20031;-77
2021/06/23 02:22:03;;;;;;;25.20;8.40;;;;;;;24.49;54.10;99918.31;5089778;28;20466;-77
2021/06/23 02:24:29;;;;;;;13.40;5.78;;;;;;;24.49;53.72;99918.31;5091322;28;20132;-77
2021/06/23 02:26:56;;;;;;;14.82;6.50;;;;;;;24.52;53.85;99911.72;5091075;28;20477;-77
2021/06/23 02:29:22;;;;;;;24.08;6.82;;;;;;;24.35;54.27;99904.66;5089415;28;20375;-77
2021/06/23 02:31:51;;;;;;;18.58;6.68;;;;;;;24.45;54.08;99911.19;5089409;28;20032;-77
2021/06/23 02:34:17;;;;;;;11.52;5.68;;;;;;;24.37;54.08;99907.84;5089358;28;20028;-77
2021/06/23 02:36:43;;;;;;;15.68;5.95;;;;;;;24.36;53.92;99897.72;5089116;28;20028;-77
2021/06/23 02:39:10;;;;;;;10.98;4.60;;;;;;;24.43;53.13;99900.28;5088962;28;20027;-77
2021/06/23 02:41:36;;;;;;;18.60;5.85;;;;;;;24.42;53.73;99901.53;5090577;28;20051;-78
2021/06/23 02:44:03;;;;;;;16.80;5.07;;;;;;;24.49;53.28;99901.25;5090460;28;20108;-77
2021/06/23 02:46:29;;;;;;;18.50;4.95;;;;;;;24.51;52.95;99912.19;5090466;28;20035;-77
2021/06/23 02:48:56;;;;;;;22.08;5.30;;;;;;;24.45;52.89;99903.47;5090132;28;20047;-77
2021/06/23 02:51:26;;;;;;;17.30;5.63;;;;;;;24.52;52.34;99906.03;5090109;28;20089;-77
2021/06/23 02:53:55;;;;;;;12.15;4.47;;;;;;;24.45;52.58;99894.13;5088765;28;20032;-77
2021/06/23 02:56:22;;;;;;;15.90;4.43;;;;;;;24.44;52.45;99893.34;5090267;28;20032;-77
2021/06/23 02:58:48;;;;;;;21.23;5.60;;;;;;;24.46;52.22;99907.09;5089904;28;20036;-77
2021/06/23 03:01:15;;;;;;;19.20;4.63;;;;;;;24.52;51.74;99906.03;5089942;28;20020;-77
2021/06/23 03:03:42;;;;;;;11.40;4.10;;;;;;;24.49;51.76;99906.16;5088441;28;20475;-77
2021/06/23 03:06:08;;;;;;;12.20;4.05;;;;;;;24.53;51.92;99899.06;5090376;28;20036;-77
2021/06/23 03:08:34;;;;;;;20.10;4.90;;;;;;;24.51;51.97;99893.06;5088630;28;20407;-77
2021/06/23 03:11:00;;;;;;;15.38;5.05;;;;;;;24.47;51.88;99889.56;5084038;28;20029;-77
2021/06/23 03:13:25;;;;;;;16.67;5.97;;;;;;;24.50;52.37;99890.69;5075428;28;20063;-78
2021/06/23 03:15:51;;;;;;;14.32;5.93;;;;;;;24.50;52.23;99885.81;5076497;28;20042;-78
2021/06/23 03:18:17;;;;;;;19.67;6.53;;;;;;;24.41;52.32;99884.97;5075940;28;20031;-77
2021/06/23 03:20:42;;;;;;;17.58;6.13;;;;;;;24.42;52.49;99878.00;5076292;28;20021;-77
2021/06/23 03:23:08;;;;;;;15.43;5.63;;;;;;;24.41;52.69;99887.81;5075749;28;20036;-77
2021/06/23 03:25:33;;;;;;;18.83;5.90;;;;;;;24.51;52.29;99898.75;5075310;28;20029;-77
2021/06/23 03:28:03;;;;;;;19.60;6.40;;;;;;;24.53;51.95;99893.38;5074713;28;20032;-77
2021/06/23 03:30:29;;;;;;;18.67;5.15;;;;;;;24.42;51.49;99889.38;5075136;28;20028;-77
2021/06/23 03:32:55;;;;;;;17.65;5.43;;;;;;;24.45;51.32;99900.63;5076464;28;20040;-77
2021/06/23 03:35:24;;;;;;;14.52;4.35;;;;;;;24.48;51.48;99908.22;5075748;28;20524;-77
2021/06/23 03:37:54;;;;;;;15.57;6.05;;;;;;;24.49;51.51;99906.16;5074505;28;20034;-77
2021/06/23 03:40:21;;;;;;;20.00;7.35;;;;;;;24.53;51.80;99913.28;5075929;28;20029;-77
2021/06/23 03:42:47;;;;;;;11.18;4.18;;;;;;;24.63;51.55;99916.19;5076197;28;20020;-77
2021/06/23 03:45:14;;;;;;;13.10;5.07;;;;;;;24.56;51.79;99920.91;5076444;28;20532;-77
2021/06/23 03:47:40;;;;;;;20.85;7.13;;;;;;;24.52;52.19;99917.41;5074534;28;20047;-78
2021/06/23 03:50:07;;;;;;;24.45;6.22;;;;;;;24.68;51.37;99929.81;5074301;28;20123;-77
2021/06/23 03:52:33;;;;;;;17.27;5.63;;;;;;;24.73;50.63;99927.16;5074148;28;20469;-77
2021/06/23 03:54:59;;;;;;;19.83;5.05;;;;;;;24.69;50.35;99934.25;5075549;28;20029;-78
2021/06/23 03:57:25;;;;;;;16.45;4.57;;;;;;;24.75;49.78;99938.84;5075419;28;20031;-77
2021/06/23 03:59:51;;;;;;;21.08;5.07;;;;;;;24.78;48.70;99932.25;5073968;28;20478;-76
2021/06/23 04:02:17;;;;;;;20.42;4.53;;;;;;;24.85;48.51;99944.59;5077821;28;20056;-76
2021/06/23 04:04:45;;;;;;;14.23;5.10;;;;;;;24.89;47.83;99946.03;5077414;28;20063;-76
2021/06/23 04:07:10;;;;;;;22.10;4.32;;;;;;;24.90;47.86;99953.31;5077506;28;20168;-76
2021/06/23 04:09:36;;;;;;;21.77;6.15;;;;;;;25.10;48.40;99972.88;5077545;28;20470;-76
2021/06/23 04:12:01;;;;;;;20.15;5.68;;;;;;;25.21;47.95;99975.31;5077653;28;20028;-76
2021/06/23 04:14:28;;;;;;;15.70;5.43;;;;;;;25.31;47.84;99983.41;5077675;28;20211;-76
2021/06/23 04:16:54;;;;;;;18.25;5.13;;;;;;;25.44;47.87;99983.28;5095308;28;20031;-76
2021/06/23 04:19:24;;;;;;;20.85;5.22;;;;;;;25.60;47.41;99988.72;5077117;28;20023;-76
2021/06/23 04:21:50;;;;;;;16.20;3.72;;;;;;;25.74;47.37;99992.22;5094979;28;20401;-76
2021/06/23 04:24:15;;;;;;;17.92;4.93;;;;;;;25.90;46.69;99994.81;5075927;28;20024;-76
2021/06/23 04:26:41;;;;;;;17.25;5.47;;;;;;;26.10;46.45;99998.00;5076717;28;20044;-76
2021/06/23 04:29:07;;;;;;;13.65;4.30;;;;;;;26.28;45.85;100019.22;5076806;28;20035;-76
2021/06/23 04:31:32;;;;;;;17.27;4.40;;;;;;;26.48;45.65;100013.09;5076888;28;20185;-76
2021/06/23 04:33:58;;;;;;;16.85;4.40;;;;;;;26.72;45.17;100013.19;5077294;28;20093;-76
2021/06/23 04:36:23;;;;;;;16.83;5.95;;;;;;;27.00;44.94;100005.34;5077005;28;20028;-76
2021/06/23 04:38:49;;;;;;;14.25;4.10;;;;;;;27.20;43.75;100004.84;5077152;28;20028;-76
2021/06/23 04:41:14;;;;;;;16.52;4.57;;;;;;;27.42;43.62;100009.03;5076789;28;20058;-76
2021/06/23 04:43:40;;;;;;;17.50;4.45;;;;;;;27.65;43.53;100010.34;5076162;28;20024;-76
2021/06/23 04:46:05;;;;;;;18.02;3.92;;;;;;;27.90;42.90;100011.16;5076398;28;20122;-76
2021/06/23 04:48:32;;;;;;;11.68;3.65;;;;;;;28.22;42.35;100023.00;5094769;28;20021;-75
2021/06/23 04:50:58;;;;;;;17.67;5.75;;;;;;;28.45;41.55;100019.34;5094275;28;20122;-76
2021/06/23 04:53:24;;;;;;;15.75;5.05;;;;;;;28.71;41.25;100037.56;5077058;28;20110;-76
2021/06/23 04:55:50;;;;;;;13.38;4.53;;;;;;;28.75;40.69;100040.19;5076224;28;20046;-76
2021/06/23 04:58:15;;;;;;;13.15;4.25;;;;;;;29.09;40.14;100038.00;5094978;28;20028;-76
2021/06/23 05:00:41;;;;;;;15.98;4.70;;;;;;;29.30;39.81;100036.78;5076242;28;20031;-76
2021/06/23 05:03:09;;;;;;;18.83;6.07;;;;;;;29.32;39.20;100019.09;5072743;28;20057;-76
2021/06/23 05:05:35;;;;;;;15.27;5.13;;;;;;;29.69;38.77;100039.50;5072815;28;20531;-76
2021/06/23 05:08:00;;;;;;;18.17;6.38;;;;;;;29.82;38.57;100042.78;5072723;28;20037;-76
2021/06/23 05:10:26;;;;;;;15.57;4.35;;;;;;;30.11;38.07;100047.63;5073793;28;20041;-75
2021/06/23 05:12:51;;;;;;;22.85;5.30;;;;;;;29.60;38.68;100042.47;5072503;28;20024;-76
2021/06/23 05:15:18;;;;;;;21.23;5.28;;;;;;;29.76;38.74;100047.66;5072826;28;20028;-76
2021/06/23 05:17:46;;;;;;;18.80;5.95;;;;;;;30.18;38.17;100058.69;5073898;28;20055;-76
2021/06/23 05:20:12;;;;;;;19.55;4.82;;;;;;;30.57;37.64;100058.38;5072633;28;20105;-76
2021/06/23 05:22:38;;;;;;;23.27;6.25;;;;;;;31.03;36.38;100069.09;5072850;28;20044;-77
2021/06/23 05:25:04;;;;;;;15.98;4.90;;;;;;;31.34;35.59;100073.31;5072591;28;20409;-77
2021/06/23 05:27:29;;;;;;;15.48;5.70;;;;;;;31.57;35.66;100069.31;5073743;28;20032;-77
2021/06/23 05:29:55;;;;;;;27.25;6.65;;;;;;;31.27;35.88;100055.22;5072270;28;20039;-77
2021/06/23 05:32:20;;;;;;;19.13;6.18;;;;;;;30.41;38.23;100070.44;5073910;28;20035;-77
2021/06/23 05:34:46;;;;;;;24.88;6.40;;;;;;;29.52;41.47;100087.94;5073230;28;20028;-77
2021/06/23 05:37:12;;;;;;;24.48;6.78;;;;;;;29.72;39.78;100084.34;5072251;28;20035;-77
2021/06/23 05:39:37;;;;;;;24.33;10.20;;;;;;;30.31;39.20;100109.19;5073536;28;20039;-77
2021/06/23 05:42:03;;;;;;;36.47;11.65;;;;;;;30.81;38.41;100117.69;5072262;28;20025;-77
2021/06/23 05:44:29;;;;;;;30.27;16.00;;;;;;;31.02;38.55;100156.56;5073466;28;20024;-77
2021/06/23 05:46:55;;;;;;;32.70;15.85;;;;;;;31.54;37.44;100176.72;5074095;28;20081;-76
2021/06/23 05:49:21;;;;;;;20.67;11.90;;;;;;;31.95;36.89;100211.06;5072318;28;20063;-77
2021/06/23 05:51:46;;;;;;;24.95;10.55;;;;;;;32.15;36.07;100236.09;5072135;28;20111;-77
2021/06/23 05:54:12;;;;;;;29.83;8.20;;;;;;;31.38;37.85;100234.84;5072362;28;20036;-77
2021/06/23 05:56:37;;;;;;;28.45;7.65;;;;;;;31.20;38.09;100228.06;5072389;28;20481;-77
2021/06/23 05:59:03;;;;;;;18.65;7.57;;;;;;;30.91;39.25;100222.50;5072427;28;20028;-76
2021/06/23 06:01:30;;;;;;;20.92;7.95;;;;;;;30.17;41.19;100200.59;5072521;28;20466;-77
2021/06/23 06:03:55;;;;;;;26.67;8.57;;;;;;;29.90;42.03;100195.97;5071825;28;20127;-77
2021/06/23 06:06:21;;;;;;;30.98;9.68;;;;;;;29.60;43.00;100223.06;5074016;28;20063;-76
2021/06/23 06:08:47;;;;;;;24.02;9.05;;;;;;;29.25;44.01;100228.66;5072260;28;20073;-76
2021/06/23 06:11:12;;;;;;;19.95;7.80;;;;;;;29.42;43.55;100247.75;5073226;28;20488;-77
2021/06/23 06:13:38;;;;;;;22.83;8.15;;;;;;;28.77;44.99;100243.00;5072508;28;20028;-77
2021/06/23 06:16:04;;;;;;;27.73;7.63;;;;;;;28.70;45.74;100239.19;5071925;28;20355;-77
2021/06/23 06:18:30;;;;;;;33.22;8.32;;;;;;;28.62;45.27;100235.13;5073685;28;20050;-77
2021/06/23 06:20:58;;;;;;;23.55;8.30;;;;;;;29.14;45.42;100241.47;5071839;28;20475;-77
2021/06/23 06:23:28;;;;;;;26.05;7.45;;;;;;;29.36;44.79;100246.06;5071419;28;20036;-77
2021/06/23 06:25:54;;;;;;;21.30;7.22;;;;;;;29.44;44.69;100252.97;5073459;28;20024;-77
2021/06/23 06:28:20;;;;;;;25.33;6.60;;;;;;;29.14;44.98;100252.94;5071864;28;20032;-76
2021/06/23 06:30:46;;;;;;;27.88;8.18;;;;;;;28.77;45.10;100254.44;5071786;28;20020;-77
2021/06/23 06:33:12;;;;;;;26.38;9.15;;;;;;;28.77;44.78;100263.03;5073543;28;20116;-77
2021/06/23 06:35:43;;;;;;;30.52;10.13;;;;;;;28.72;45.27;100264.50;5073062;28;20020;-77
2021/06/23 06:38:09;;;;;;;29.08;9.30;;;;;;;29.01;45.33;100246.66;5071577;28;20428;-76
2021/06/23 06:40:34;;;;;;;28.38;7.43;;;;;;;29.48;43.24;100231.44;5071761;28;20078;-77
2021/06/23 06:43:00;;;;;;;27.17;7.97;;;;;;;29.33;43.70;100241.28;5073103;28;20354;-77
2021/06/23 06:45:26;;;;;;;25.35;10.27;;;;;;;29.20;44.14;100239.50;5071804;28;20024;-76
2021/06/23 06:47:52;;;;;;;23.75;8.38;;;;;;;29.41;43.99;100245.38;5076846;28;20486;-76
2021/06/23 06:50:18;;;;;;;20.90;7.88;;;;;;;29.91;43.91;100251.25;5076350;28;20028;-77
2021/06/23 06:52:43;;;;;;;21.42;9.18;;;;;;;29.99;44.28;100229.50;5075155;28;20063;-77
2021/06/23 06:55:09;;;;;;;25.10;9.05;;;;;;;29.94;44.53;100215.84;5075778;28;20020;-77
2021/06/23 06:57:35;;;;;;;31.45;10.57;;;;;;;30.23;44.10;100221.53;5075865;28;20419;-76
2021/06/23 07:00:01;;;;;;;20.70;8.30;;;;;;;30.80;42.86;100226.03;5075034;28;20493;-76
2021/06/23 07:02:27;;;;;;;23.92;8.38;;;;;;;30.71;43.16;100217.56;5080009;28;20123;-76
2021/06/23 07:04:52;;;;;;;29.20;8.35;;;;;;;30.74;43.20;100208.72;5096535;28;20104;-76
2021/06/23 07:07:18;;;;;;;19.45;7.15;;;;;;;30.62;43.65;100201.22;5078700;28;20035;-76
2021/06/23 07:09:43;;;;;;;21.15;9.38;;;;;;;30.11;45.07;100181.69;5096419;28;20032;-76
2021/06/23 07:12:09;;;;;;;25.45;8.38;;;;;;;30.24;44.80;100171.47;5078281;28;20382;-76
2021/06/23 07:14:35;;;;;;;24.65;8.43;;;;;;;30.90;43.29;100169.22;5096463;28;20490;-76
2021/06/23 07:17:01;;;;;;;36.13;9.73;;;;;;;30.87;42.30;100159.53;5078420;28;20024;-76
2021/06/23 07:19:26;;;;;;;21.05;9.10;;;;;;;30.60;42.08;100143.50;5077972;28;20176;-76
2021/06/23 07:21:52;;;;;;;26.27;8.88;;;;;;;30.23;42.60;100132.59;5077770;28;20039;-76
2021/06/23 07:24:19;;;;;;;16.45;6.38;;;;;;;29.41;44.70;100120.06;5077714;28;20039;-76
2021/06/23 07:26:48;;;;;;;31.20;7.95;;;;;;;29.63;44.38;100122.53;5096202;28;20378;-76
2021/06/23 07:29:15;;;;;;;26.38;7.07;;;;;;;29.62;45.01;100106.63;5077896;28;20085;-77
2021/06/23 07:36:40;;;;;;;20.77;7.93;;;;;;;30.68;42.51;100066.31;5096259;28;20032;-77
2021/06/23 07:39:11;;;;;;;22.05;7.50;;;;;;;31.37;41.54;100073.06;5096075;28;20111;-77
2021/06/23 07:41:38;;;;;;;22.73;7.13;;;;;;;32.37;39.32;100072.16;5078251;28;20038;-76
2021/06/23 07:44:04;;;;;;;23.05;7.82;;;;;;;32.32;40.02;100059.28;5077657;28;20024;-76
2021/06/23 07:46:33;;;;;;;16.35;7.18;;;;;;;32.62;39.27;100061.78;5077637;28;20024;-77
2021/06/23 07:48:59;;;;;;;17.95;6.70;;;;;;;32.31;39.19;100066.34;5077679;28;20408;-75
2021/06/23 07:51:34;;;;;;;18.42;6.40;;;;;;;32.43;39.39;100072.97;5077870;28;20128;-76
2021/06/23 07:54:10;;;;;;;21.85;6.03;;;;;;;33.17;36.78;100071.84;5095296;28;20039;-76
2021/06/23 08:10:30;;;;;;;20.67;6.60;;;;;;;34.53;34.28;100061.69;5095631;28;20059;-77
2021/06/23 08:12:59;;;;;;;18.45;6.07;;;;;;;35.49;31.97;100077.09;5095093;28;20024;-77
2021/06/23 08:15:28;;;;;;;27.67;8.75;;;;;;;36.09;32.03;100099.41;5077954;28;20415;-76
2021/06/23 08:17:54;;;;;;;16.83;6.72;;;;;;;35.64;31.15;100108.53;5077312;28;20458;-76
2021/06/23 08:20:20;;;;;;;17.20;7.15;;;;;;;36.44;30.14;100113.78;5076840;28;20107;-76
2021/06/23 08:22:46;;;;;;;21.33;6.18;;;;;;;36.66;29.19;100103.22;5095731;28;20056;-78
2021/06/23 08:25:13;;;;;;;22.50;5.50;;;;;;;36.24;28.33;100088.19;5095117;28;20108;-76
2021/06/23 08:27:42;;;;;;;20.65;6.78;;;;;;;35.68;29.08;100106.88;5076984;28;20032;-77
2021/06/23 08:30:09;;;;;;;15.32;5.95;;;;;;;36.31;28.36;100133.91;5095302;28;20032;-75
2021/06/23 08:32:36;;;;;;;22.85;5.93;;;;;;;36.85;27.06;100146.69;5095769;28;20042;-76
2021/06/23 08:35:02;;;;;;;21.17;5.10;;;;;;;36.91;27.25;100161.91;5094457;28;20481;-76
2021/06/23 08:37:29;;;;;;;24.20;5.88;;;;;;;36.63;26.77;100147.78;5076735;28;20031;-77
2021/06/23 08:39:54;;;;;;;20.17;5.70;;;;;;;37.37;26.10;100140.44;5076343;28;20031;-76
2021/06/23 08:42:21;;;;;;;16.50;6.50;;;;;;;37.79;25.68;100149.50;5094733;28;20035;-76
2021/06/23 08:44:50;;;;;;;21.10;6.18;;;;;;;37.88;25.58;100159.97;5076381;28;20040;-76
2021/06/23 08:47:16;;;;;;;22.95;6.13;;;;;;;38.13;25.17;100151.81;5094558;28;20031;-77
2021/06/23 08:49:47;;;;;;;30.40;6.32;;;;;;;36.96;25.66;100141.53;5059715;28;20123;-77
2021/06/23 08:52:13;;;;;;;13.70;5.50;;;;;;;36.87;25.11;100115.84;5076200;28;20032;-76
2021/06/23 08:54:45;;;;;;;18.85;4.95;;;;;;;36.67;25.49;100125.84;5095019;28;20084;-76
2021/06/23 08:57:11;;;;;;;23.20;6.38;;;;;;;36.67;25.12;100130.88;5076691;28;20374;-76
2021/06/23 08:59:44;;;;;;;25.95;6.40;;;;;;;36.67;24.67;100136.66;5075881;28;20028;-76
2021/06/23 09:12:17;;;;;;;26.92;6.15;;;;;;;37.74;24.18;100144.59;5055614;28;20504;-77
2021/06/23 09:14:42;;;;;;;26.20;6.53;;;;;;;37.62;24.24;100138.19;5075908;28;20036;-78
2021/06/23 09:17:16;;;;;;;30.17;6.30;;;;;;;37.73;23.42;100140.13;5076063;28;20115;-77
2021/06/23 09:19:58;;;;;;;27.65;4.88;;;;;;;37.11;24.63;100131.59;5076104;28;20039;-76
2021/06/23 09:22:31;;;;;;;20.40;6.13;;;;;;;35.80;25.96;100124.94;5075691;28;20035;-76
2021/06/23 09:24:57;;;;;;;13.05;4.82;;;;;;;35.51;27.02;100114.94;5075944;28;20265;-76
2021/06/23 09:27:25;;;;;;;26.00;6.95;;;;;;;35.21;27.87;100122.75;5076165;28;20032;-76
2021/06/23 09:29:51;;;;;;;23.30;7.35;;;;;;;35.01;27.43;100112.41;5075632;28;20039;-76
2021/06/23 09:32:21;;;;;;;21.20;6.30;;;;;;;34.65;28.11;100104.44;5094416;28;20035;-76
2021/06/23 09:34:49;;;;;;;30.20;6.28;;;;;;;34.55;28.09;100096.59;5093537;28;20034;-76
2021/06/23 09:37:37;;;;;;;25.38;6.38;;;;;;;34.20;27.80;100083.59;5094263;28;20374;-76
2021/06/23 09:40:14;;;;;;;20.88;6.88;;;;;;;34.22;27.83;100054.19;5093460;28;20020;-75
2021/06/23 09:42:44;;;;;;;24.30;6.53;;;;;;;33.83;29.66;100058.75;5076041;28;20134;-76
2021/06/23 09:45:13;;;;;;;28.35;6.28;;;;;;;33.60;31.10;100057.19;5075904;28;20472;-77
2021/06/23 09:47:44;;;;;;;28.77;6.43;;;;;;;33.40;31.52;100037.25;5075413;28;20032;-77
2021/06/23 09:50:16;;;;;;;30.65;7.93;;;;;;;33.26;31.90;100027.59;5075113;28;20036;-77
2021/06/23 09:53:01;;;;;;;;;;;;;;;33.32;31.53;100031.25;5076456;28;20066;-76
2021/06/23 09:55:37;;;;;;;26.80;6.20;;;;;;;33.87;30.64;100046.91;5094090;28;20226;-77
2021/06/23 09:58:09;;;;;;;24.10;7.20;;;;;;;34.07;30.04;100052.41;5094211;28;20028;-77
2021/06/23 10:01:11;;;;;;;27.35;7.60;;;;;;;34.88;29.06;100053.06;5075252;28;20086;-77
2021/06/23 10:03:52;;;;;;;;;;;;;;;35.87;28.11;100065.69;5093464;28;20035;-77
2021/06/23 10:06:23;;;;;;;23.63;6.57;;;;;;;36.05;28.15;100058.38;5075186;28;19919;-76
2021/06/23 10:08:50;;;;;;;27.23;7.75;;;;;;;35.22;28.92;100034.72;5075260;28;20060;-76
2021/06/23 10:11:30;;;;;;;23.23;5.50;;;;;;;35.34;28.50;100019.59;5075209;28;20114;-76
2021/06/23 10:13:56;;;;;;;27.13;6.93;;;;;;;35.50;28.11;100015.03;5093919;28;20047;-77
2021/06/23 10:16:25;;;;;;;16.88;5.20;;;;;;;35.87;25.25;100023.03;5092994;28;20466;-78
2021/06/23 10:18:54;;;;;;;33.15;7.32;;;;;;;35.25;27.23;100034.41;5093290;28;20024;-76
2021/06/23 10:21:22;;;;;;;34.03;6.35;;;;;;;35.79;27.43;100021.28;5076191;28;20028;-77
2021/06/23 10:23:49;;;;;;;24.02;7.72;;;;;;;35.77;28.28;100016.06;5079802;28;20035;-77
2021/06/23 10:26:19;;;;;;;19.70;5.50;;;;;;;35.62;28.28;100009.91;5080053;28;20032;-77
2021/06/23 10:28:51;;;;;;;20.80;6.30;;;;;;;36.03;27.56;100009.72;5079889;28;20021;-77
2021/06/23 10:31:19;;;;;;;26.05;6.35;;;;;;;35.84;26.37;100008.84;5097425;28;20105;-77
2021/06/23 10:33:45;;;;;;;27.05;6.57;;;;;;;35.35;27.76;100000.16;5079463;28;20016;-78
2021/06/23 10:36:11;;;;;;;20.00;5.18;;;;;;;36.34;26.00;99988.00;5097058;28;20032;-78
2021/06/23 10:38:38;;;;;;;27.50;5.82;;;;;;;36.13;27.42;99981.97;5079096;28;20421;-77
2021/06/23 10:41:11;;;;;;;18.88;5.82;;;;;;;35.71;26.83;99971.91;5096781;28;20111;-76
2021/06/23 10:43:37;;;;;;;23.38;6.47;;;;;;;35.73;26.18;99965.59;5078790;28;20081;-77
2021/06/23 10:46:03;;;;;;;28.08;7.10;;;;;;;35.99;26.12;99970.81;5078561;28;20035;-76
2021/06/23 10:48:28;;;;;;;24.67;5.90;;;;;;;35.71;25.59;99969.03;5078615;28;20032;-77
2021/06/23 10:50:56;;;;;;;25.27;5.35;;;;;;;36.36;24.91;99970.84;5096868;28;20028;-77
2021/06/23 10:53:30;;;;;;;21.60;5.65;;;;;;;36.16;24.32;99954.00;5078882;28;20039;-77
2021/06/23 10:55:56;;;;;;;26.80;6.55;;;;;;;36.32;24.39;99960.91;5079042;28;20468;-77
2021/06/23 10:58:40;;;;;;;22.27;4.47;;;;;;;36.56;23.85;99939.78;5096767;28;20477;-77
2021/06/23 11:01:11;;;;;;;28.77;5.50;;;;;;;36.75;24.51;99943.41;5078665;28;20028;-77
2021/06/23 11:04:01;;;;;;;25.20;6.50;;;;;;;37.15;24.84;99943.56;5062131;28;20089;-77
2021/06/23 11:06:45;;;;;;;21.65;6.40;;;;;;;36.55;25.03;99932.44;5096358;28;20032;-76
2021/06/23 11:09:25;;;;;;;25.27;5.00;;;;;;;36.64;24.85;99934.88;5079109;28;20028;-76
2021/06/23 11:11:52;;;;;;;20.45;6.18;;;;;;;37.21;24.52;99930.50;5074978;28;20120;-77
2021/06/23 11:14:21;;;;;;;21.75;6.05;;;;;;;37.20;24.31;99919.47;5075671;28;20439;-78
2021/06/23 11:16:47;;;;;;;26.25;5.82;;;;;;;37.37;24.80;99922.84;5075199;28;20025;-78
2021/06/23 11:19:14;;;;;;;25.98;6.47;;;;;;;37.26;23.53;99936.78;5075638;28;20090;-78
2021/06/23 11:21:41;;;;;;;27.80;5.93;;;;;;;37.59;22.35;99956.44;5075281;28;20039;-77
2021/06/23 11:24:16;;;;;;;33.50;6.07;;;;;;;37.23;22.82;99967.66;5074860;28;20070;-78
2021/06/23 11:26:52;;;;;;;25.80;7.55;;;;;;;37.23;24.17;99982.97;5074999;28;20119;-77
2021/06/23 11:29:18;;;;;;;25.10;7.47;;;;;;;37.34;23.89;99981.16;5076900;28;20028;-77
2021/06/23 11:31:46;;;;;;;25.00;6.75;;;;;;;38.08;23.06;99996.66;5074291;28;20039;-77
2021/06/23 11:34:38;;;;;;;25.58;6.47;;;;;;;38.29;22.29;100008.38;5076382;28;20025;-78
2021/06/23 11:37:08;;;;;;;25.10;5.82;;;;;;;38.11;22.85;99998.44;5074575;28;20031;-77
2021/06/23 11:39:34;;;;;;;27.85;7.15;;;;;;;38.32;23.26;100009.41;5074598;28;20032;-76
2021/06/23 11:42:00;;;;;;;31.50;6.07;;;;;;;38.38;25.01;100005.00;5075083;28;20053;-77
2021/06/23 11:44:30;;;;;;;21.67;5.57;;;;;;;38.35;25.50;100006.13;5075118;28;20425;-77
2021/06/23 11:46:58;;;;;;;18.02;5.63;;;;;;;38.64;24.70;100015.00;5074988;28;20028;-76
2021/06/23 11:49:24;;;;;;;27.65;5.32;;;;;;;38.25;24.67;100014.53;5074910;28;20047;-76
2021/06/23 11:51:50;;;;;;;23.38;6.53;;;;;;;38.34;24.14;100010.38;5074548;28;20466;-76
2021/06/23 11:54:17;;;;;;;20.02;5.13;;;;;;;38.07;24.82;100005.94;5074491;28;20028;-75
2021/06/23 11:56:45;;;;;;;31.67;5.53;;;;;;;38.15;24.75;100009.72;5074451;28;20040;-76
2021/06/23 11:59:11;;;;;;;22.10;6.07;;;;;;;38.15;24.97;100003.94;5074427;28;20035;-76
2021/06/23 12:01:36;;;;;;;27.50;6.90;;;;;;;37.96;25.37;100016.44;5075155;28;20037;-76